CYTR

CFB Trenton

Airport
ICAO code
CYTR
Summary
ICAO Region
NAM
ICAO Territory
Location

Trenton, Ontario,

Coordinates
44° 7' 8" N , 77° 31' 41" W
KCC
Airport WX
Lake Effect Snow
Metar
Observation
CYTR 032000Z 02005KT 15SM BKN250 16/M01 A3032 RMK CI7 DENSITY ALT 101FT SLP268
Station
Trenton, Ont.
Date/Time
2022-10-03 20:00:00
Wind direction
20°
Wind speed
05 kts
Lowest cloud amount
broken clouds
Temperature
16°C
Dew point
-1°C
Humidity
31%
Weather condition
n/a

Description

Canadian Forces Base Trenton (also CFB Trenton), is a Canadian Forces base located 2.3 nm northeast of Trenton, Ontario. It is operated as an air force base by Canadian Forces Air Command (AIRCOM) and is the hub for air transport operations in Canada and abroad.

Climatology

Humid continental climate (Köppen climate classification Dfa) - characterized by four seasons: cold, windy, snowy winters, mild springs, hot, humid summers, and crisp and relatively short autumns. Precipitation reaches its lowest in January and February and peaks in summer and latter half of spring.

Runways

Designator Length Width Surface Rops
13/31 922 46 ASP No/No
6/24 3048 61 ASP No/No

Airport map

Aerial View

SKYbrary Partners:

Safety knowledge contributed by: